sensor_id;sensor_type;location;lat;lon;timestamp;temperature;humidity
10386;DHT22;34307;51.332;12.334;2022-10-23T05:35:49;9.90;99.90
10386;DHT22;34307;51.332;12.334;2022-10-23T05:38:18;9.90;99.90
10386;DHT22;34307;51.332;12.334;2022-10-23T05:40:46;9.90;99.90
10386;DHT22;34307;51.332;12.334;2022-10-23T05:43:14;9.90;99.90
10386;DHT22;34307;51.332;12.334;2022-10-23T05:45:42;9.90;99.90
10386;DHT22;34307;51.332;12.334;2022-10-23T05:48:12;9.90;99.90
10386;DHT22;34307;51.332;12.334;2022-10-23T05:51:03;10.00;99.90
10386;DHT22;34307;51.332;12.334;2022-10-23T05:53:31;10.00;99.90
10386;DHT22;34307;51.332;12.334;2022-10-23T05:56:05;10.00;99.90
10386;DHT22;34307;51.332;12.334;2022-10-23T05:58:34;10.00;99.90
10386;DHT22;34307;51.332;12.334;2022-10-23T10:50:13;16.50;99.90
10386;DHT22;34307;51.332;12.334;2022-10-23T10:59:59;17.10;99.90
10386;DHT22;34307;51.332;12.334;2022-10-23T11:02:30;17.20;99.90
10386;DHT22;34307;51.332;12.334;2022-10-23T11:05:08;17.30;99.90
10386;DHT22;34307;51.332;12.334;2022-10-23T11:14:54;17.70;99.90
10386;DHT22;34307;51.332;12.334;2022-10-23T11:17:25;17.70;99.90
10386;DHT22;34307;51.332;12.334;2022-10-23T11:20:00;17.80;99.90
10386;DHT22;34307;51.332;12.334;2022-10-23T11:22:35;17.90;99.90
10386;DHT22;34307;51.332;12.334;2022-10-23T11:25:39;18.00;99.90
10386;DHT22;34307;51.332;12.334;2022-10-23T11:42:52;18.70;99.90
10386;DHT22;34307;51.332;12.334;2022-10-23T11:45:28;18.90;99.90
10386;DHT22;34307;51.332;12.334;2022-10-23T11:55:19;19.30;99.90
10386;DHT22;34307;51.332;12.334;2022-10-23T11:58:16;19.50;99.90
10386;DHT22;34307;51.332;12.334;2022-10-23T12:00:52;19.50;96.00
10386;DHT22;34307;51.332;12.334;2022-10-23T12:03:26;19.60;99.80
10386;DHT22;34307;51.332;12.334;2022-10-23T12:05:58;19.50;98.30
10386;DHT22;34307;51.332;12.334;2022-10-23T12:08:29;19.50;95.20
10386;DHT22;34307;51.332;12.334;2022-10-23T12:11:00;19.70;98.30
10386;DHT22;34307;51.332;12.334;2022-10-23T12:13:41;20.10;88.50
10386;DHT22;34307;51.332;12.334;2022-10-23T12:16:10;20.80;81.30
10386;DHT22;34307;51.332;12.334;2022-10-23T12:18:48;21.10;65.60
10386;DHT22;34307;51.332;12.334;2022-10-23T12:21:19;21.20;60.10
10386;DHT22;34307;51.332;12.334;2022-10-23T12:26:57;21.40;59.60
10386;DHT22;34307;51.332;12.334;2022-10-23T12:29:36;21.10;60.70
10386;DHT22;34307;51.332;12.334;2022-10-23T12:32:20;20.90;64.90
10386;DHT22;34307;51.332;12.334;2022-10-23T12:35:02;20.50;75.80
10386;DHT22;34307;51.332;12.334;2022-10-23T12:37:50;20.20;88.50
10386;DHT22;34307;51.332;12.334;2022-10-23T12:40:22;20.20;90.40
10386;DHT22;34307;51.332;12.334;2022-10-23T12:42:59;20.30;91.10
10386;DHT22;34307;51.332;12.334;2022-10-23T12:45:29;20.60;88.60
10386;DHT22;34307;51.332;12.334;2022-10-23T12:55:19;21.00;80.70
10386;DHT22;34307;51.332;12.334;2022-10-23T12:57:47;21.00;83.80
10386;DHT22;34307;51.332;12.334;2022-10-23T13:00:17;20.90;83.90
10386;DHT22;34307;51.332;12.334;2022-10-23T13:02:46;20.80;87.20
10386;DHT22;34307;51.332;12.334;2022-10-23T13:05:24;20.50;90.60
10386;DHT22;34307;51.332;12.334;2022-10-23T13:07:52;20.50;88.40
10386;DHT22;34307;51.332;12.334;2022-10-23T13:17:42;20.20;94.10
10386;DHT22;34307;51.332;12.334;2022-10-23T13:20:23;20.10;95.00
10386;DHT22;34307;51.332;12.334;2022-10-23T13:22:56;20.00;94.10
10386;DHT22;34307;51.332;12.334;2022-10-23T13:25:29;20.00;95.80
10386;DHT22;34307;51.332;12.334;2022-10-23T13:28:11;20.10;92.50
10386;DHT22;34307;51.332;12.334;2022-10-23T13:30:42;20.10;93.90
10386;DHT22;34307;51.332;12.334;2022-10-23T13:33:21;20.00;93.40
10386;DHT22;34307;51.332;12.334;2022-10-23T13:43:15;19.90;93.50
10386;DHT22;34307;51.332;12.334;2022-10-23T15:45:37;16.90;99.90
10386;DHT22;34307;51.332;12.334;2022-10-23T15:48:05;16.90;99.90
10386;DHT22;34307;51.332;12.334;2022-10-23T15:50:35;16.90;99.90
10386;DHT22;34307;51.332;12.334;2022-10-23T15:53:03;16.90;99.90
10386;DHT22;34307;51.332;12.334;2022-10-23T15:55:31;16.90;99.90
10386;DHT22;34307;51.332;12.334;2022-10-23T15:57:59;16.90;99.90
10386;DHT22;34307;51.332;12.334;2022-10-23T16:00:29;16.80;99.90
10386;DHT22;34307;51.332;12.334;2022-10-23T16:03:03;16.80;99.90
10386;DHT22;34307;51.332;12.334;2022-10-23T16:05:31;16.80;99.90
10386;DHT22;34307;51.332;12.334;2022-10-23T16:07:59;16.70;99.90
10386;DHT22;34307;51.332;12.334;2022-10-23T16:10:27;16.70;99.90
10386;DHT22;34307;51.332;12.334;2022-10-23T16:12:55;16.70;99.90
10386;DHT22;34307;51.332;12.334;2022-10-23T16:15:23;16.70;99.90
10386;DHT22;34307;51.332;12.334;2022-10-23T16:17:52;16.80;99.90
10386;DHT22;34307;51.332;12.334;2022-10-23T16:20:21;16.70;99.90
10386;DHT22;34307;51.332;12.334;2022-10-23T16:22:49;16.70;99.90
10386;DHT22;34307;51.332;12.334;2022-10-23T16:25:17;16.70;99.90
10386;DHT22;34307;51.332;12.334;2022-10-23T16:27:46;16.70;99.90
10386;DHT22;34307;51.332;12.334;2022-10-23T16:30:14;16.60;99.90
10386;DHT22;34307;51.332;12.334;2022-10-23T16:32:42;16.60;99.90
10386;DHT22;34307;51.332;12.334;2022-10-23T16:35:10;16.50;99.90
10386;DHT22;34307;51.332;12.334;2022-10-23T16:37:40;16.50;99.90
10386;DHT22;34307;51.332;12.334;2022-10-23T16:40:09;16.30;99.90
10386;DHT22;34307;51.332;12.334;2022-10-23T16:42:37;16.30;99.90
10386;DHT22;34307;51.332;12.334;2022-10-23T16:45:07;16.10;99.90
10386;DHT22;34307;51.332;12.334;2022-10-23T16:47:35;16.10;99.90
10386;DHT22;34307;51.332;12.334;2022-10-23T16:50:03;16.00;99.90
10386;DHT22;34307;51.332;12.334;2022-10-23T16:52:31;15.90;99.90
10386;DHT22;34307;51.332;12.334;2022-10-23T16:55:01;15.80;99.90
10386;DHT22;34307;51.332;12.334;2022-10-23T16:57:29;15.80;99.90
10386;DHT22;34307;51.332;12.334;2022-10-23T16:59:57;15.70;99.90
10386;DHT22;34307;51.332;12.334;2022-10-23T17:02:25;15.60;99.90
10386;DHT22;34307;51.332;12.334;2022-10-23T17:04:53;15.60;99.90
10386;DHT22;34307;51.332;12.334;2022-10-23T17:07:21;15.50;99.90
